createdAt,value
2022-12-31T00:01:19.472Z,98606.17
2022-12-31T00:03:46.551Z,98605.05
2022-12-31T00:06:25.651Z,98605.39
2022-12-31T00:08:54.424Z,98607.05
2022-12-31T00:11:26.810Z,98606.73
2022-12-31T00:13:54.160Z,98607.98
2022-12-31T00:16:23.853Z,98604.55
2022-12-31T00:18:53.241Z,98599.18
2022-12-31T00:21:21.276Z,98592.46
2022-12-31T00:23:48.748Z,98592.05
2022-12-31T00:26:18.182Z,98590.41
2022-12-31T00:28:45.724Z,98598.08
2022-12-31T00:31:18.936Z,98609.14
2022-12-31T00:33:46.219Z,98602.48
2022-12-31T00:36:16.052Z,98606.38
2022-12-31T00:38:45.736Z,98610.48
2022-12-31T00:41:13.518Z,98599.65
2022-12-31T00:43:40.356Z,98602.20
2022-12-31T00:46:08.641Z,98605.67
2022-12-31T00:48:36.371Z,98618.44
2022-12-31T00:51:20.114Z,98619.63
2022-12-31T00:53:47.802Z,98625.41
2022-12-31T00:56:17.175Z,98623.17
2022-12-31T00:58:44.655Z,98621.81
2022-12-31T01:01:15.141Z,98619.14
2022-12-31T01:03:42.536Z,98619.91
2022-12-31T01:06:09.429Z,98628.00
2022-12-31T01:08:36.230Z,98631.60
2022-12-31T01:11:18.545Z,98633.35
2022-12-31T01:13:47.810Z,98636.34
2022-12-31T01:16:14.847Z,98629.65
2022-12-31T01:18:43.180Z,98632.88
2022-12-31T01:21:12.083Z,98633.76
2022-12-31T01:23:39.659Z,98632.20
2022-12-31T01:26:08.705Z,98633.98
2022-12-31T01:28:35.987Z,98642.13
2022-12-31T01:31:06.891Z,98645.58
2022-12-31T01:33:34.404Z,98650.17
2022-12-31T01:36:04.363Z,98650.27
2022-12-31T01:38:31.180Z,98653.71
2022-12-31T01:40:58.006Z,98654.56
2022-12-31T01:43:24.799Z,98655.17
2022-12-31T01:45:54.298Z,98652.43
2022-12-31T01:48:26.140Z,98644.66
2022-12-31T01:50:54.736Z,98644.83
2022-12-31T01:53:22.192Z,98636.45
2022-12-31T01:55:54.236Z,98623.05
2022-12-31T01:58:27.912Z,98636.16
2022-12-31T02:00:55.303Z,98644.38
2022-12-31T02:03:23.920Z,98636.48
2022-12-31T02:05:54.536Z,98637.25
2022-12-31T02:08:21.963Z,98641.00
2022-12-31T02:10:48.873Z,98638.52
2022-12-31T02:13:15.921Z,98634.06
2022-12-31T02:15:49.104Z,98627.67
2022-12-31T02:18:17.004Z,98630.88
2022-12-31T02:20:59.137Z,98635.02
2022-12-31T02:24:01.067Z,98652.11
2022-12-31T02:26:31.153Z,98660.37
2022-12-31T02:29:21.806Z,98651.58
2022-12-31T02:32:04.199Z,98647.05
2022-12-31T02:34:34.484Z,98647.50
2022-12-31T02:37:06.990Z,98650.13
2022-12-31T02:39:35.697Z,98639.45
2022-12-31T02:42:02.822Z,98624.66
2022-12-31T02:44:33.613Z,98614.69
2022-12-31T02:47:23.233Z,98610.29
2022-12-31T02:49:57.354Z,98602.33
2022-12-31T02:52:24.013Z,98599.48
2022-12-31T02:55:09.275Z,98594.91
2022-12-31T02:57:55.103Z,98588.41
2022-12-31T03:00:37.939Z,98575.92
2022-12-31T03:03:08.085Z,98566.13
2022-12-31T03:05:40.360Z,98562.64
2022-12-31T03:08:07.692Z,98546.50
2022-12-31T03:10:34.978Z,98537.56
2022-12-31T03:13:01.728Z,98537.48
2022-12-31T03:15:32.115Z,98556.84
2022-12-31T03:18:02.070Z,98565.13
2022-12-31T03:20:47.273Z,98575.67
2022-12-31T03:23:17.359Z,98586.73
2022-12-31T03:25:44.231Z,98596.31
2022-12-31T03:28:15.558Z,98607.36
2022-12-31T03:30:44.861Z,98615.11
2022-12-31T03:33:12.565Z,98610.66
2022-12-31T03:35:41.840Z,98608.14
2022-12-31T03:38:09.257Z,98609.02
2022-12-31T03:40:40.899Z,98616.45
2022-12-31T03:43:08.278Z,98614.42
2022-12-31T03:45:35.687Z,98616.80
2022-12-31T03:48:04.719Z,98615.62
2022-12-31T03:50:31.870Z,98624.05
2022-12-31T03:52:58.799Z,98625.90
2022-12-31T03:55:25.808Z,98625.11
2022-12-31T03:57:52.917Z,98623.71
2022-12-31T04:00:21.714Z,98621.97
2022-12-31T04:02:49.402Z,98626.43
2022-12-31T04:05:17.894Z,98628.23
2022-12-31T04:07:45.028Z,98620.57
2022-12-31T04:10:14.542Z,98627.85
2022-12-31T04:12:42.107Z,98629.63
2022-12-31T04:15:10.543Z,98631.27
2022-12-31T04:17:37.509Z,98632.67
2022-12-31T04:20:04.664Z,98633.09
2022-12-31T04:22:31.421Z,98625.92
2022-12-31T04:24:58.191Z,98629.39
2022-12-31T04:27:25.110Z,98630.02
2022-12-31T04:29:51.884Z,98637.66
2022-12-31T04:32:18.818Z,98639.30
2022-12-31T04:34:45.524Z,98640.16
2022-12-31T04:37:13.119Z,98647.75
2022-12-31T04:39:39.916Z,98647.36
2022-12-31T04:42:06.677Z,98651.50
2022-12-31T04:44:35.122Z,98652.80
2022-12-31T04:47:02.242Z,98659.42
2022-12-31T04:49:29.225Z,98664.92
2022-12-31T04:51:55.985Z,98662.05
2022-12-31T04:54:22.882Z,98661.32
2022-12-31T04:56:50.000Z,98657.98
2022-12-31T04:59:16.793Z,98658.83
2022-12-31T05:01:43.579Z,98660.77
2022-12-31T05:04:10.417Z,98663.04
2022-12-31T05:06:37.166Z,98665.95
2022-12-31T05:09:04.050Z,98668.76
2022-12-31T05:11:30.848Z,98673.14
2022-12-31T05:13:57.726Z,98673.25
2022-12-31T05:16:24.502Z,98671.68
2022-12-31T05:18:51.477Z,98673.97
2022-12-31T05:21:21.283Z,98673.77
2022-12-31T05:23:48.953Z,98673.71
2022-12-31T05:26:16.181Z,98670.96
2022-12-31T05:28:43.104Z,98666.75
2022-12-31T05:31:10.591Z,98659.98
2022-12-31T05:33:37.378Z,98658.92
2022-12-31T05:36:04.616Z,98658.52
2022-12-31T05:38:31.405Z,98658.20
2022-12-31T05:41:02.296Z,98657.48
2022-12-31T05:43:29.453Z,98657.77
2022-12-31T05:45:56.494Z,98658.23
2022-12-31T05:48:23.307Z,98662.08
2022-12-31T05:50:50.257Z,98663.55
2022-12-31T05:53:17.082Z,98662.71
2022-12-31T05:55:47.327Z,98665.30
2022-12-31T05:58:15.812Z,98672.40
2022-12-31T06:00:43.083Z,98682.04
2022-12-31T06:03:13.744Z,98678.70
2022-12-31T06:05:42.735Z,98683.35
2022-12-31T06:08:12.255Z,98683.65
2022-12-31T06:10:40.147Z,98684.05
2022-12-31T06:13:07.009Z,98676.91
2022-12-31T06:15:38.899Z,98680.86
2022-12-31T06:18:05.833Z,98690.33
2022-12-31T06:20:32.640Z,98694.18
2022-12-31T06:22:59.961Z,98701.83
2022-12-31T06:25:26.986Z,98703.50
2022-12-31T06:27:54.105Z,98700.56
2022-12-31T06:30:21.091Z,98699.08
2022-12-31T06:32:47.971Z,98697.17
2022-12-31T06:35:14.784Z,98695.63
2022-12-31T06:37:41.554Z,98696.27
2022-12-31T06:40:08.881Z,98697.71
2022-12-31T06:42:35.664Z,98692.02
2022-12-31T06:45:02.422Z,98685.70
2022-12-31T06:47:29.683Z,98685.73
2022-12-31T06:49:56.540Z,98683.73
2022-12-31T06:52:23.281Z,98682.56
2022-12-31T06:54:50.954Z,98675.02
2022-12-31T06:57:17.985Z,98674.98
2022-12-31T06:59:45.205Z,98683.90
2022-12-31T07:02:27.688Z,98695.45
2022-12-31T07:04:55.782Z,98701.57
2022-12-31T07:07:35.689Z,98705.90
2022-12-31T07:10:04.479Z,98711.98
2022-12-31T07:12:46.594Z,98712.55
2022-12-31T07:15:17.184Z,98718.52
2022-12-31T07:18:01.898Z,98715.52
2022-12-31T07:20:29.043Z,98716.77
2022-12-31T07:22:56.136Z,98718.40
2022-12-31T07:25:24.960Z,98723.38
2022-12-31T07:28:05.177Z,98727.48
2022-12-31T07:30:53.760Z,98728.41
2022-12-31T07:33:43.577Z,98733.88
2022-12-31T07:36:33.068Z,98743.73
2022-12-31T07:39:04.859Z,98749.38
2022-12-31T07:41:46.833Z,98752.11
2022-12-31T07:44:14.637Z,98751.17
2022-12-31T07:46:59.108Z,98746.13
2022-12-31T07:49:27.316Z,98741.50
2022-12-31T07:51:54.758Z,98741.91
2022-12-31T07:54:21.980Z,98735.35
2022-12-31T07:56:50.295Z,98740.66
2022-12-31T07:59:37.968Z,98745.10
2022-12-31T08:02:20.243Z,98749.11
2022-12-31T08:04:56.772Z,98745.95
2022-12-31T08:07:34.455Z,98741.52
2022-12-31T08:10:17.481Z,98740.45
2022-12-31T08:12:47.095Z,98740.50
2022-12-31T08:15:16.745Z,98745.73
2022-12-31T08:17:43.930Z,98753.67
2022-12-31T08:20:15.178Z,98752.39
2022-12-31T08:23:00.721Z,98754.34
2022-12-31T08:25:42.776Z,98751.42
2022-12-31T08:28:32.464Z,98758.61
2022-12-31T08:31:17.165Z,98763.50
2022-12-31T08:33:50.753Z,98764.56
2022-12-31T08:36:30.882Z,98762.92
2022-12-31T08:39:07.247Z,98752.87
2022-12-31T08:41:42.887Z,98742.24
2022-12-31T08:44:25.344Z,98743.91
2022-12-31T08:47:22.475Z,98744.14
2022-12-31T08:49:49.481Z,98748.77
2022-12-31T08:52:22.690Z,98752.99
2022-12-31T08:54:49.930Z,98754.52
2022-12-31T08:57:27.740Z,98763.77
2022-12-31T09:00:05.774Z,98768.04
2022-12-31T09:02:43.204Z,98773.16
2022-12-31T09:05:24.460Z,98763.24
2022-12-31T09:07:55.657Z,98754.77
2022-12-31T09:10:30.461Z,98752.96
2022-12-31T09:13:12.424Z,98753.73
2022-12-31T09:15:42.792Z,98749.48
2022-12-31T09:18:12.067Z,98746.23
2022-12-31T09:20:44.172Z,98738.27
2022-12-31T09:23:12.735Z,98733.83
2022-12-31T09:25:50.552Z,98730.56
2022-12-31T09:28:33.677Z,98726.89
2022-12-31T09:31:11.559Z,98722.91
2022-12-31T09:33:50.250Z,98719.52
2022-12-31T09:36:23.210Z,98722.38
2022-12-31T09:39:06.815Z,98724.56
2022-12-31T09:41:52.279Z,98727.96
2022-12-31T09:44:35.690Z,98735.33
2022-12-31T09:47:33.345Z,98738.61
2022-12-31T09:50:02.967Z,98742.90
2022-12-31T09:52:57.891Z,98742.91
2022-12-31T09:55:35.543Z,98743.79
2022-12-31T09:58:17.924Z,98744.55
2022-12-31T10:01:06.947Z,98743.36
2022-12-31T10:03:37.082Z,98735.75
2022-12-31T10:06:05.428Z,98730.13
2022-12-31T10:08:50.023Z,98725.22
2022-12-31T10:11:27.265Z,98720.23
2022-12-31T10:14:08.296Z,98712.09
2022-12-31T10:16:49.486Z,98711.52
2022-12-31T10:19:27.116Z,98712.38
2022-12-31T10:22:00.499Z,98710.86
2022-12-31T10:24:28.313Z,98704.31
2022-12-31T10:26:58.479Z,98702.77
2022-12-31T10:29:32.238Z,98702.00
2022-12-31T10:32:15.626Z,98707.74
2022-12-31T10:34:54.937Z,98707.79
2022-12-31T10:37:45.501Z,98713.23
2022-12-31T10:40:25.524Z,98722.50
2022-12-31T10:43:21.605Z,98727.23
2022-12-31T10:46:22.872Z,98733.37
2022-12-31T10:49:20.709Z,98736.48
2022-12-31T10:51:47.543Z,98745.80
2022-12-31T10:54:20.996Z,98739.40
2022-12-31T10:56:54.646Z,98753.25
2022-12-31T10:59:44.079Z,98746.09
2022-12-31T11:02:11.983Z,98745.73
2022-12-31T11:05:00.020Z,98741.18
2022-12-31T11:07:49.478Z,98736.77
2022-12-31T11:10:40.466Z,98734.52
2022-12-31T11:13:34.649Z,98725.80
2022-12-31T11:16:24.289Z,98724.98
2022-12-31T11:19:14.729Z,98733.31
2022-12-31T11:21:45.867Z,98733.90
2022-12-31T11:24:20.047Z,98732.67
2022-12-31T11:27:02.311Z,98733.11
2022-12-31T11:29:44.484Z,98726.79
2022-12-31T11:32:32.810Z,98716.70
2022-12-31T11:35:22.219Z,98715.53
2022-12-31T11:37:52.905Z,98714.41
2022-12-31T11:40:26.370Z,98708.73
2022-12-31T11:43:01.722Z,98713.81
2022-12-31T11:45:59.399Z,98711.72
2022-12-31T11:48:50.858Z,98709.23
2022-12-31T11:51:18.732Z,98703.70
2022-12-31T11:54:16.842Z,98708.59
2022-12-31T11:56:52.839Z,98703.50
2022-12-31T11:59:20.925Z,98701.30
2022-12-31T12:02:18.184Z,98705.77
2022-12-31T12:04:48.765Z,98691.89
2022-12-31T12:07:16.738Z,98699.86
2022-12-31T12:09:44.977Z,98698.36
2022-12-31T12:12:12.613Z,98694.73
2022-12-31T12:14:42.641Z,98692.06
2022-12-31T12:17:16.645Z,98689.71
2022-12-31T12:19:47.458Z,98684.92
2022-12-31T12:22:22.100Z,98687.08
2022-12-31T12:24:53.501Z,98680.66
2022-12-31T12:27:24.043Z,98679.42
2022-12-31T12:29:50.859Z,98681.84
2022-12-31T12:32:21.730Z,98681.64
2022-12-31T12:34:50.125Z,98683.38
2022-12-31T12:37:34.522Z,98676.27
2022-12-31T12:40:09.551Z,98681.48
2022-12-31T12:42:36.381Z,98685.41
2022-12-31T12:45:08.404Z,98685.36
2022-12-31T12:47:35.221Z,98676.30
2022-12-31T12:50:03.418Z,98681.17
2022-12-31T12:53:00.974Z,98677.58
2022-12-31T12:55:41.442Z,98689.27
2022-12-31T12:58:24.798Z,98684.70
2022-12-31T13:01:00.242Z,98678.27
2022-12-31T13:04:23.848Z,98682.79
2022-12-31T13:07:02.121Z,98685.02
2022-12-31T13:09:45.638Z,98676.06
2022-12-31T13:13:05.253Z,98671.76
2022-12-31T13:15:36.778Z,98666.98
2022-12-31T13:18:19.109Z,98659.63
2022-12-31T13:20:55.924Z,98659.08
2022-12-31T13:23:39.794Z,98665.60
2022-12-31T13:26:13.645Z,98673.98
2022-12-31T13:28:43.681Z,98677.61
2022-12-31T13:31:15.384Z,98673.64
2022-12-31T13:33:48.390Z,98676.38
2022-12-31T13:36:19.276Z,98676.95
2022-12-31T13:38:51.491Z,98682.34
2022-12-31T13:41:18.235Z,98686.11
2022-12-31T13:43:56.967Z,98688.75
2022-12-31T13:46:28.396Z,98690.67
2022-12-31T13:49:01.601Z,98689.39
2022-12-31T13:51:46.173Z,98692.07
2022-12-31T13:54:32.323Z,98691.30
2022-12-31T13:57:05.109Z,98701.66
2022-12-31T13:59:37.780Z,98706.30
2022-12-31T14:02:24.798Z,98701.92
2022-12-31T14:05:00.237Z,98705.87
2022-12-31T14:07:39.078Z,98705.11
2022-12-31T14:10:16.034Z,98716.60
2022-12-31T14:12:42.890Z,98716.83
2022-12-31T14:15:31.519Z,98727.26
2022-12-31T14:18:00.337Z,98728.66
2022-12-31T14:20:31.980Z,98729.96
2022-12-31T14:23:12.398Z,98733.04
2022-12-31T14:25:48.102Z,98734.89
2022-12-31T14:28:21.257Z,98734.38
2022-12-31T14:30:52.492Z,98733.30
2022-12-31T14:33:32.557Z,98737.40
2022-12-31T14:36:12.718Z,98737.06
2022-12-31T14:38:57.061Z,98737.20
2022-12-31T14:41:36.862Z,98736.91
2022-12-31T14:44:32.459Z,98737.36
2022-12-31T14:47:17.696Z,98738.84
2022-12-31T14:50:05.306Z,98735.98
2022-12-31T14:52:35.304Z,98731.67
2022-12-31T14:55:22.976Z,98730.05
2022-12-31T15:00:40.027Z,98729.16
2022-12-31T15:03:24.559Z,98732.70
2022-12-31T15:05:51.626Z,98734.72
2022-12-31T15:08:22.415Z,98738.00
2022-12-31T15:11:12.235Z,98733.64
2022-12-31T15:13:54.296Z,98734.42
2022-12-31T15:16:46.216Z,98732.91
2022-12-31T15:19:29.443Z,98737.18
2022-12-31T15:22:14.770Z,98737.00
2022-12-31T15:24:46.714Z,98737.86
2022-12-31T15:27:37.954Z,98738.55
2022-12-31T15:30:07.107Z,98739.52
2022-12-31T15:32:39.407Z,98745.09
2022-12-31T15:35:21.331Z,98734.45
2022-12-31T15:38:11.267Z,98741.09
2022-12-31T15:40:47.096Z,98738.15
2022-12-31T15:43:32.558Z,98733.37
2022-12-31T15:45:59.860Z,98741.30
2022-12-31T15:48:36.635Z,98747.73
2022-12-31T15:51:05.232Z,98747.20
2022-12-31T15:53:38.936Z,98747.01
2022-12-31T15:56:08.423Z,98751.08
2022-12-31T15:58:37.295Z,98748.40
2022-12-31T16:01:19.490Z,98747.33
2022-12-31T16:03:55.595Z,98748.85
2022-12-31T16:06:22.656Z,98753.74
2022-12-31T16:08:50.415Z,98760.23
2022-12-31T16:11:17.923Z,98765.79
2022-12-31T16:13:49.034Z,98766.67
2022-12-31T16:16:25.575Z,98761.18
2022-12-31T16:18:53.447Z,98764.46
2022-12-31T16:21:24.479Z,98764.33
2022-12-31T16:23:53.631Z,98767.77
2022-12-31T16:26:21.804Z,98766.06
2022-12-31T16:28:49.287Z,98772.88
2022-12-31T16:31:20.094Z,98771.96
2022-12-31T16:33:47.950Z,98768.59
2022-12-31T16:36:21.233Z,98766.07
2022-12-31T16:38:48.816Z,98773.36
2022-12-31T16:41:24.602Z,98780.36
2022-12-31T16:43:51.434Z,98780.82
2022-12-31T16:46:25.631Z,98787.13
2022-12-31T16:48:57.073Z,98783.50
2022-12-31T16:51:29.906Z,98782.95
2022-12-31T16:53:58.177Z,98789.75
2022-12-31T16:56:33.166Z,98793.77
2022-12-31T16:59:06.538Z,98800.21
2022-12-31T17:01:37.161Z,98800.98
2022-12-31T17:04:11.897Z,98807.45
2022-12-31T17:06:38.739Z,98809.11
2022-12-31T17:09:22.107Z,98804.05
2022-12-31T17:11:54.793Z,98798.30
2022-12-31T17:14:26.380Z,98791.95
2022-12-31T17:17:01.625Z,98790.10
2022-12-31T17:19:47.414Z,98797.63
2022-12-31T17:22:36.462Z,98797.11
2022-12-31T17:25:20.135Z,98805.34
2022-12-31T17:28:03.513Z,98796.80
2022-12-31T17:30:30.289Z,98802.95
2022-12-31T17:33:01.007Z,98807.63
2022-12-31T17:35:27.856Z,98806.10
2022-12-31T17:37:54.785Z,98801.06
2022-12-31T17:40:52.859Z,98797.73
2022-12-31T17:43:22.427Z,98796.32
2022-12-31T17:45:54.399Z,98794.42
2022-12-31T17:48:25.051Z,98800.41
2022-12-31T17:50:53.993Z,98809.29
2022-12-31T17:53:21.082Z,98806.16
2022-12-31T17:55:50.784Z,98805.98
2022-12-31T17:58:29.259Z,98811.77
2022-12-31T18:00:57.635Z,98808.85
2022-12-31T18:03:24.926Z,98806.77
2022-12-31T18:05:51.889Z,98810.79
2022-12-31T18:08:19.968Z,98813.52
2022-12-31T18:10:47.394Z,98813.95
2022-12-31T18:13:17.977Z,98815.23
2022-12-31T18:15:45.014Z,98817.09
2022-12-31T18:18:25.263Z,98825.95
2022-12-31T18:20:57.699Z,98821.11
2022-12-31T18:23:46.249Z,98816.95
2022-12-31T18:26:15.441Z,98813.64
2022-12-31T18:28:42.252Z,98815.90
2022-12-31T18:31:18.751Z,98826.63
2022-12-31T18:33:47.808Z,98824.16
2022-12-31T18:36:17.115Z,98824.42
2022-12-31T18:38:44.038Z,98826.08
2022-12-31T18:41:18.529Z,98815.63
2022-12-31T18:43:45.966Z,98818.51
2022-12-31T18:46:14.830Z,98819.52
2022-12-31T18:48:42.152Z,98820.52
2022-12-31T18:51:15.965Z,98819.33
2022-12-31T18:53:43.134Z,98820.84
2022-12-31T18:56:13.457Z,98818.29
2022-12-31T18:58:40.516Z,98819.28
2022-12-31T19:01:37.893Z,98815.42
2022-12-31T19:04:11.474Z,98821.20
2022-12-31T19:06:38.312Z,98828.45
2022-12-31T19:09:17.946Z,98834.89
2022-12-31T19:11:52.294Z,98835.20
2022-12-31T19:14:24.091Z,98832.25
2022-12-31T19:16:51.974Z,98839.77
2022-12-31T19:19:19.132Z,98834.77
2022-12-31T19:21:46.385Z,98833.23
2022-12-31T19:24:18.537Z,98831.77
2022-12-31T19:26:46.717Z,98828.13
2022-12-31T19:29:22.075Z,98832.16
2022-12-31T19:31:49.587Z,98834.27
2022-12-31T19:34:16.752Z,98837.56
2022-12-31T19:36:44.285Z,98837.20
2022-12-31T19:39:21.214Z,98835.21
2022-12-31T19:41:58.517Z,98840.75
2022-12-31T19:44:26.624Z,98838.48
2022-12-31T19:46:53.467Z,98838.57
2022-12-31T19:49:20.410Z,98838.42
2022-12-31T19:51:47.207Z,98835.73
2022-12-31T19:54:13.929Z,98829.98
2022-12-31T19:56:40.968Z,98827.83
2022-12-31T19:59:25.698Z,98829.88
2022-12-31T20:01:52.883Z,98835.41
2022-12-31T20:04:21.685Z,98847.08
2022-12-31T20:06:50.915Z,98858.42
2022-12-31T20:09:17.695Z,98855.68
2022-12-31T20:11:44.807Z,98858.55
2022-12-31T20:14:12.160Z,98860.02
2022-12-31T20:16:56.208Z,98856.98
2022-12-31T20:19:23.001Z,98849.83
2022-12-31T20:21:49.864Z,98854.40
2022-12-31T20:24:16.785Z,98856.05
2022-12-31T20:26:43.560Z,98860.55
2022-12-31T20:29:10.264Z,98869.53
2022-12-31T20:31:37.169Z,98858.70
2022-12-31T20:34:03.940Z,98859.79
2022-12-31T20:36:31.124Z,98855.27
2022-12-31T20:38:58.528Z,98843.25
2022-12-31T20:41:26.299Z,98846.95
2022-12-31T20:43:54.031Z,98838.38
2022-12-31T20:46:24.867Z,98838.33
2022-12-31T20:48:54.106Z,98830.02
2022-12-31T20:51:22.578Z,98830.60
2022-12-31T20:53:52.093Z,98834.31
2022-12-31T20:56:19.217Z,98829.56
2022-12-31T20:58:46.393Z,98827.79
2022-12-31T21:01:14.583Z,98825.52
2022-12-31T21:06:33.915Z,98822.48
2022-12-31T21:09:03.772Z,98831.50
2022-12-31T21:11:46.305Z,98829.77
2022-12-31T21:14:13.791Z,98827.89
2022-12-31T21:16:56.067Z,98828.16
2022-12-31T21:19:23.200Z,98840.86
2022-12-31T21:21:50.129Z,98842.73
2022-12-31T21:24:23.289Z,98840.52
2022-12-31T21:26:50.561Z,98842.31
2022-12-31T21:29:17.367Z,98837.95
2022-12-31T21:31:44.101Z,98833.05
2022-12-31T21:34:10.989Z,98832.32
2022-12-31T21:36:37.858Z,98828.52
2022-12-31T21:39:04.740Z,98829.88
2022-12-31T21:41:46.956Z,98827.71
2022-12-31T21:44:13.732Z,98835.91
2022-12-31T21:46:54.568Z,98838.33
2022-12-31T21:49:27.549Z,98838.46
2022-12-31T21:52:09.652Z,98844.35
2022-12-31T21:54:51.996Z,98843.63
2022-12-31T21:57:18.831Z,98851.20
2022-12-31T22:00:32.028Z,98861.30
2022-12-31T22:03:03.533Z,98865.09
2022-12-31T22:05:30.351Z,98873.95
2022-12-31T22:07:57.140Z,98871.69
2022-12-31T22:10:43.582Z,98872.17
2022-12-31T22:13:16.476Z,98872.57
2022-12-31T22:15:44.910Z,98876.55
2022-12-31T22:18:13.171Z,98872.86
2022-12-31T22:20:41.005Z,98875.90
2022-12-31T22:23:07.874Z,98869.48
2022-12-31T22:25:35.471Z,98865.16
2022-12-31T22:30:50.366Z,98867.77
2022-12-31T22:33:17.255Z,98876.83
2022-12-31T22:35:43.995Z,98882.74
2022-12-31T22:38:12.353Z,98876.52
2022-12-31T22:40:39.488Z,98879.02
2022-12-31T22:43:06.267Z,98881.75
2022-12-31T22:45:33.032Z,98881.34
2022-12-31T22:47:59.916Z,98881.80
2022-12-31T22:50:26.681Z,98884.88
2022-12-31T22:52:53.422Z,98891.44
2022-12-31T22:55:20.184Z,98885.26
2022-12-31T22:57:46.904Z,98879.99
2022-12-31T23:00:14.435Z,98880.85
2022-12-31T23:02:42.138Z,98882.20
2022-12-31T23:05:16.024Z,98877.47
2022-12-31T23:07:43.271Z,98876.84
2022-12-31T23:10:26.385Z,98878.10
2022-12-31T23:12:53.232Z,98874.61
2022-12-31T23:15:35.357Z,98873.98
2022-12-31T23:18:17.786Z,98876.73
2022-12-31T23:20:59.967Z,98880.66
2022-12-31T23:23:26.908Z,98882.04
2022-12-31T23:26:01.404Z,98883.86
2022-12-31T23:28:28.174Z,98887.41
2022-12-31T23:30:54.931Z,98886.66
2022-12-31T23:33:24.568Z,98888.77
2022-12-31T23:36:02.204Z,98885.89
2022-12-31T23:38:28.946Z,98884.45
2022-12-31T23:40:55.679Z,98883.38
2022-12-31T23:43:22.959Z,98881.88
2022-12-31T23:45:51.121Z,98885.91
2022-12-31T23:48:17.872Z,98886.85
2022-12-31T23:50:50.791Z,98891.84
2022-12-31T23:53:19.702Z,98891.61
2022-12-31T23:55:46.594Z,98890.81
2022-12-31T23:58:13.352Z,98899.80
